KBPC

Pampa

Pampa, Texas, USA
METAR KBPC 191635Z AUTO 01021G29KT 10SM OVC020 00/M06 A3033 RMK AO2
Observed Flight Rules
Jan-19 @ 16:35 UTC (7 minutes ago) Marginal Visual Flight Rules
Wind Visibility Clouds
10° at 21 knots
 Gusting to 29 knots
10 miles
  • Overcast at 2,000' AGL
Temperatures Readings
Current 0°C / 32°F
Dewpoint -6°C / 21°F
Humidity 64%
Altimeter 30.33" Hg
Pressure 1027.12 hPa
Elevation 845
METAR KBPC 191635Z AUTO 01021G29KT 10SM OVC020 00/M06 A3033 RMK AO2
Observed Flight Rules
Jan-19 @ 16:35 UTC
(7 minutes ago)
MVFR
Wind Visibility
10° at 21 knots
 Gusting to 29 knots
10 miles
Clouds
  • Overcast at 2,000' AGL
Temperature Dewpoint
0°C / 32°F -6°C / 21°F
Humidity Altimeter Pressure
64% 30.33" Hg 1027.12 hPa